sensor_id;sensor_type;location;lat;lon;timestamp;pressure;altitude;pressure_sealevel;temperature;humidity
77869;BME280;67231;59.144;37.934;2023-02-01T00:01:59;98465.53;;;-0.51;76.33
77869;BME280;67231;59.144;37.934;2023-02-01T00:04:25;98474.28;;;-0.52;76.18
77869;BME280;67231;59.144;37.934;2023-02-01T00:06:51;98472.66;;;-0.53;76.44
77869;BME280;67231;59.144;37.934;2023-02-01T00:09:17;98462.94;;;-0.51;76.35
77869;BME280;67231;59.144;37.934;2023-02-01T00:11:42;98481.16;;;-0.51;75.94
77869;BME280;67231;59.144;37.934;2023-02-01T00:14:08;98481.16;;;-0.51;76.46
77869;BME280;67231;59.144;37.934;2023-02-01T00:16:34;98481.97;;;-0.50;76.28
77869;BME280;67231;59.144;37.934;2023-02-01T00:19:20;98483.66;;;-0.49;75.96
77869;BME280;67231;59.144;37.934;2023-02-01T00:21:46;98481.97;;;-0.50;76.34
77869;BME280;67231;59.144;37.934;2023-02-01T00:24:12;98478.66;;;-0.52;76.06
77869;BME280;67231;59.144;37.934;2023-02-01T00:26:40;98479.72;;;-0.55;76.35
77869;BME280;67231;59.144;37.934;2023-02-01T00:29:10;98470.97;;;-0.54;76.01
77869;BME280;67231;59.144;37.934;2023-02-01T00:31:37;98485.66;;;-0.53;76.07
77869;BME280;67231;59.144;37.934;2023-02-01T00:34:03;98488.28;;;-0.53;76.33
77869;BME280;67231;59.144;37.934;2023-02-01T00:36:29;98495.13;;;-0.52;76.17
77869;BME280;67231;59.144;37.934;2023-02-01T00:38:55;98504.72;;;-0.52;76.27
77869;BME280;67231;59.144;37.934;2023-02-01T00:41:21;98501.16;;;-0.51;76.52
77869;BME280;67231;59.144;37.934;2023-02-01T00:43:48;98491.59;;;-0.51;75.94
77869;BME280;67231;59.144;37.934;2023-02-01T00:46:15;98504.50;;;-0.49;76.30
77869;BME280;67231;59.144;37.934;2023-02-01T00:48:41;98501.03;;;-0.50;76.07
77869;BME280;67231;59.144;37.934;2023-02-01T00:51:13;98500.91;;;-0.48;75.84
77869;BME280;67231;59.144;37.934;2023-02-01T00:53:39;98496.78;;;-0.51;76.40
77869;BME280;67231;59.144;37.934;2023-02-01T00:56:05;98498.44;;;-0.50;76.20
77869;BME280;67231;59.144;37.934;2023-02-01T00:58:32;98509.59;;;-0.48;76.05
77869;BME280;67231;59.144;37.934;2023-02-01T01:01:07;98511.34;;;-0.48;75.90
77869;BME280;67231;59.144;37.934;2023-02-01T01:03:36;98498.44;;;-0.50;75.81
77869;BME280;67231;59.144;37.934;2023-02-01T01:06:05;98497.59;;;-0.50;75.72
77869;BME280;67231;59.144;37.934;2023-02-01T01:08:31;98498.53;;;-0.51;75.75
77869;BME280;67231;59.144;37.934;2023-02-01T01:10:56;98502.00;;;-0.51;76.02
77869;BME280;67231;59.144;37.934;2023-02-01T01:13:22;98499.28;;;-0.49;75.10
77869;BME280;67231;59.144;37.934;2023-02-01T01:15:48;98500.34;;;-0.52;75.14
77869;BME280;67231;59.144;37.934;2023-02-01T01:18:14;98505.78;;;-0.55;75.16
77869;BME280;67231;59.144;37.934;2023-02-01T01:20:40;98506.00;;;-0.58;75.52
77869;BME280;67231;59.144;37.934;2023-02-01T01:23:08;98507.91;;;-0.60;75.28
77869;BME280;67231;59.144;37.934;2023-02-01T01:25:38;98504.72;;;-0.64;75.43
77869;BME280;67231;59.144;37.934;2023-02-01T01:28:04;98521.06;;;-0.62;75.51
77869;BME280;67231;59.144;37.934;2023-02-01T01:30:30;98508.16;;;-0.63;75.17
77869;BME280;67231;59.144;37.934;2023-02-01T01:32:55;98514.31;;;-0.64;75.31
77869;BME280;67231;59.144;37.934;2023-02-01T01:35:21;98525.56;;;-0.64;75.37
77869;BME280;67231;59.144;37.934;2023-02-01T01:37:47;98521.19;;;-0.63;75.13
77869;BME280;67231;59.144;37.934;2023-02-01T01:40:12;98518.34;;;-0.60;74.92
77869;BME280;67231;59.144;37.934;2023-02-01T01:42:41;98533.97;;;-0.60;75.04
77869;BME280;67231;59.144;37.934;2023-02-01T01:45:25;98530.44;;;-0.59;74.78
77869;BME280;67231;59.144;37.934;2023-02-01T01:47:54;98531.47;;;-0.62;74.46
77869;BME280;67231;59.144;37.934;2023-02-01T01:50:23;98527.22;;;-0.63;74.55
77869;BME280;67231;59.144;37.934;2023-02-01T01:52:52;98540.22;;;-0.63;74.96
77869;BME280;67231;59.144;37.934;2023-02-01T01:55:22;98528.06;;;-0.62;74.44
77869;BME280;67231;59.144;37.934;2023-02-01T01:58:05;98542.94;;;-0.64;74.69
77869;BME280;67231;59.144;37.934;2023-02-01T02:00:32;98536.09;;;-0.65;74.45
77869;BME280;67231;59.144;37.934;2023-02-01T02:03:03;98548.44;;;-0.67;74.47
77869;BME280;67231;59.144;37.934;2023-02-01T02:05:31;98536.44;;;-0.70;74.76
77869;BME280;67231;59.144;37.934;2023-02-01T02:07:59;98528.88;;;-0.73;74.34
77869;BME280;67231;59.144;37.934;2023-02-01T02:10:28;98530.66;;;-0.74;74.34
77869;BME280;67231;59.144;37.934;2023-02-01T02:13:14;98540.97;;;-0.72;74.77
77869;BME280;67231;59.144;37.934;2023-02-01T02:15:46;98539.19;;;-0.71;74.89
77869;BME280;67231;59.144;37.934;2023-02-01T02:18:27;98534.66;;;-0.69;74.52
77869;BME280;67231;59.144;37.934;2023-02-01T02:27:02;98542.59;;;-0.71;74.13
77869;BME280;67231;59.144;37.934;2023-02-01T02:38:07;98559.88;;;-0.81;74.32
77869;BME280;67231;59.144;37.934;2023-02-01T02:40:45;98569.38;;;-0.80;74.52
77869;BME280;67231;59.144;37.934;2023-02-01T02:49:05;98566.16;;;-0.73;74.31
77869;BME280;67231;59.144;37.934;2023-02-01T02:51:41;98572.09;;;-0.70;74.02
77869;BME280;67231;59.144;37.934;2023-02-01T02:54:37;98572.81;;;-0.68;74.06
77869;BME280;67231;59.144;37.934;2023-02-01T02:57:36;98564.28;;;-0.70;74.30
77869;BME280;67231;59.144;37.934;2023-02-01T03:00:27;98579.91;;;-0.70;74.17
77869;BME280;67231;59.144;37.934;2023-02-01T03:03:12;98567.81;;;-0.71;73.66
77869;BME280;67231;59.144;37.934;2023-02-01T03:05:57;98574.94;;;-0.74;74.00
77869;BME280;67231;59.144;37.934;2023-02-01T03:08:24;98587.00;;;-0.73;74.27
77869;BME280;67231;59.144;37.934;2023-02-01T03:11:01;98583.69;;;-0.75;74.44
77869;BME280;67231;59.144;37.934;2023-02-01T03:16:10;98600.72;;;-0.82;74.37
77869;BME280;67231;59.144;37.934;2023-02-01T03:21:13;98598.13;;;-0.82;74.20
77869;BME280;67231;59.144;37.934;2023-02-01T03:23:41;98593.97;;;-0.84;74.33
77869;BME280;67231;59.144;37.934;2023-02-01T03:26:11;98596.69;;;-0.86;74.57
77869;BME280;67231;59.144;37.934;2023-02-01T03:28:44;98612.31;;;-0.86;73.98
77869;BME280;67231;59.144;37.934;2023-02-01T03:31:15;98606.28;;;-0.86;74.24
77869;BME280;67231;59.144;37.934;2023-02-01T03:33:41;98608.75;;;-0.85;74.35
77869;BME280;67231;59.144;37.934;2023-02-01T03:38:52;98625.09;;;-0.83;74.28
77869;BME280;67231;59.144;37.934;2023-02-01T03:44:26;98631.97;;;-0.82;74.41
77869;BME280;67231;59.144;37.934;2023-02-01T03:49:41;98634.59;;;-0.82;74.35
77869;BME280;67231;59.144;37.934;2023-02-01T03:52:12;98631.13;;;-0.82;74.24
77869;BME280;67231;59.144;37.934;2023-02-01T03:54:39;98649.25;;;-0.81;74.40
77869;BME280;67231;59.144;37.934;2023-02-01T03:57:08;98651.84;;;-0.81;74.11
77869;BME280;67231;59.144;37.934;2023-02-01T03:59:41;98646.63;;;-0.81;73.89
77869;BME280;67231;59.144;37.934;2023-02-01T04:02:07;98662.25;;;-0.81;73.90
77869;BME280;67231;59.144;37.934;2023-02-01T04:04:34;98651.63;;;-0.78;74.33
77869;BME280;67231;59.144;37.934;2023-02-01T04:07:00;98654.22;;;-0.78;73.97
77869;BME280;67231;59.144;37.934;2023-02-01T04:09:26;98667.47;;;-0.81;73.97
77869;BME280;67231;59.144;37.934;2023-02-01T04:11:51;98660.50;;;-0.80;74.34
77869;BME280;67231;59.144;37.934;2023-02-01T04:14:17;98663.94;;;-0.80;74.13
77869;BME280;67231;59.144;37.934;2023-02-01T04:16:43;98677.06;;;-0.81;74.55
77869;BME280;67231;59.144;37.934;2023-02-01T04:19:09;98672.69;;;-0.81;74.29
77869;BME280;67231;59.144;37.934;2023-02-01T04:21:34;98676.94;;;-0.80;74.55
77869;BME280;67231;59.144;37.934;2023-02-01T04:24:00;98674.13;;;-0.77;73.99
77869;BME280;67231;59.144;37.934;2023-02-01T04:26:25;98671.28;;;-0.74;74.11
77869;BME280;67231;59.144;37.934;2023-02-01T04:28:51;98677.44;;;-0.75;73.89
77869;BME280;67231;59.144;37.934;2023-02-01T04:31:18;98689.53;;;-0.74;73.80
77869;BME280;67231;59.144;37.934;2023-02-01T04:33:54;98694.75;;;-0.74;73.90
77869;BME280;67231;59.144;37.934;2023-02-01T04:36:21;98685.97;;;-0.73;74.21
77869;BME280;67231;59.144;37.934;2023-02-01T04:38:50;98704.31;;;-0.74;74.21
77869;BME280;67231;59.144;37.934;2023-02-01T04:41:16;98700.16;;;-0.77;74.33
77869;BME280;67231;59.144;37.934;2023-02-01T04:43:46;98706.41;;;-0.79;74.30
77869;BME280;67231;59.144;37.934;2023-02-01T04:46:12;98697.78;;;-0.80;74.25
77869;BME280;67231;59.144;37.934;2023-02-01T04:48:38;98697.78;;;-0.80;74.30
77869;BME280;67231;59.144;37.934;2023-02-01T04:51:04;98701.31;;;-0.81;74.54
77869;BME280;67231;59.144;37.934;2023-02-01T04:53:29;98703.34;;;-0.84;74.40
77869;BME280;67231;59.144;37.934;2023-02-01T04:55:55;98707.94;;;-0.88;74.65
77869;BME280;67231;59.144;37.934;2023-02-01T04:58:22;98706.25;;;-0.89;74.96
77869;BME280;67231;59.144;37.934;2023-02-01T05:00:48;98712.41;;;-0.90;74.81
77869;BME280;67231;59.144;37.934;2023-02-01T05:03:14;98703.06;;;-0.93;75.06
77869;BME280;67231;59.144;37.934;2023-02-01T05:05:40;98705.06;;;-0.96;75.36
77869;BME280;67231;59.144;37.934;2023-02-01T05:08:06;98717.66;;;-1.03;75.80
77869;BME280;67231;59.144;37.934;2023-02-01T05:10:32;98719.06;;;-1.10;75.75
77869;BME280;67231;59.144;37.934;2023-02-01T05:12:58;98733.97;;;-1.12;75.69
77869;BME280;67231;59.144;37.934;2023-02-01T05:15:42;98723.03;;;-1.17;76.01
77869;BME280;67231;59.144;37.934;2023-02-01T05:18:08;98722.13;;;-1.16;75.84
77869;BME280;67231;59.144;37.934;2023-02-01T05:20:33;98725.31;;;-1.13;75.95
77869;BME280;67231;59.144;37.934;2023-02-01T05:22:59;98731.75;;;-1.05;75.49
77869;BME280;67231;59.144;37.934;2023-02-01T05:25:25;98733.06;;;-1.00;75.79
77869;BME280;67231;59.144;37.934;2023-02-01T05:27:51;98737.25;;;-0.97;75.42
77869;BME280;67231;59.144;37.934;2023-02-01T05:30:17;98750.84;;;-0.94;74.98
77869;BME280;67231;59.144;37.934;2023-02-01T05:32:42;98747.22;;;-0.91;74.92
77869;BME280;67231;59.144;37.934;2023-02-01T05:35:08;98738.22;;;-0.87;74.73
77869;BME280;67231;59.144;37.934;2023-02-01T05:37:34;98752.91;;;-0.86;74.53
77869;BME280;67231;59.144;37.934;2023-02-01T05:40:00;98745.81;;;-0.84;75.14
77869;BME280;67231;59.144;37.934;2023-02-01T05:42:26;98763.13;;;-0.83;75.09
77869;BME280;67231;59.144;37.934;2023-02-01T05:44:52;98754.38;;;-0.82;74.98
77869;BME280;67231;59.144;37.934;2023-02-01T05:47:17;98754.13;;;-0.79;74.50
77869;BME280;67231;59.144;37.934;2023-02-01T05:49:43;98748.09;;;-0.79;74.55
77869;BME280;67231;59.144;37.934;2023-02-01T05:52:09;98766.00;;;-0.75;74.63
77869;BME280;67231;59.144;37.934;2023-02-01T05:54:34;98763.97;;;-0.71;74.32
77869;BME280;67231;59.144;37.934;2023-02-01T05:57:00;98768.25;;;-0.70;74.28
77869;BME280;67231;59.144;37.934;2023-02-01T05:59:26;98770.75;;;-0.68;74.34
77869;BME280;67231;59.144;37.934;2023-02-01T06:01:52;98780.97;;;-0.65;74.15
77869;BME280;67231;59.144;37.934;2023-02-01T06:04:18;98787.59;;;-0.61;73.67
77869;BME280;67231;59.144;37.934;2023-02-01T06:06:43;98791.53;;;-0.56;73.96
77869;BME280;67231;59.144;37.934;2023-02-01T06:09:09;98790.50;;;-0.53;73.99
77869;BME280;67231;59.144;37.934;2023-02-01T06:11:35;98794.63;;;-0.50;73.72
77869;BME280;67231;59.144;37.934;2023-02-01T06:14:00;98803.38;;;-0.51;74.17
77869;BME280;67231;59.144;37.934;2023-02-01T06:16:26;98787.75;;;-0.51;73.96
77869;BME280;67231;59.144;37.934;2023-02-01T06:18:52;98809.44;;;-0.51;74.03
77869;BME280;67231;59.144;37.934;2023-02-01T06:21:19;98800.06;;;-0.53;74.06
77869;BME280;67231;59.144;37.934;2023-02-01T06:23:52;98812.97;;;-0.52;74.14
77869;BME280;67231;59.144;37.934;2023-02-01T06:26:19;98814.66;;;-0.51;74.11
77869;BME280;67231;59.144;37.934;2023-02-01T06:28:45;98817.84;;;-0.47;73.98
77869;BME280;67231;59.144;37.934;2023-02-01T06:31:11;98825.44;;;-0.44;73.91
77869;BME280;67231;59.144;37.934;2023-02-01T06:33:39;98817.63;;;-0.44;73.76
77869;BME280;67231;59.144;37.934;2023-02-01T06:36:07;98824.31;;;-0.40;73.79
77869;BME280;67231;59.144;37.934;2023-02-01T06:38:33;98824.16;;;-0.39;73.34
77869;BME280;67231;59.144;37.934;2023-02-01T06:41:00;98832.50;;;-0.33;73.10
77869;BME280;67231;59.144;37.934;2023-02-01T06:43:27;98819.25;;;-0.30;73.60
77869;BME280;67231;59.144;37.934;2023-02-01T06:45:58;98836.41;;;-0.28;73.15
77869;BME280;67231;59.144;37.934;2023-02-01T06:48:24;98838.63;;;-0.34;73.73
77869;BME280;67231;59.144;37.934;2023-02-01T06:50:50;98846.56;;;-0.36;73.79
77869;BME280;67231;59.144;37.934;2023-02-01T06:53:15;98843.47;;;-0.41;74.34
77869;BME280;67231;59.144;37.934;2023-02-01T06:55:41;98840.97;;;-0.43;73.89
77869;BME280;67231;59.144;37.934;2023-02-01T06:58:07;98845.25;;;-0.42;73.86
77869;BME280;67231;59.144;37.934;2023-02-01T07:00:32;98844.78;;;-0.35;73.87
77869;BME280;67231;59.144;37.934;2023-02-01T07:02:58;98846.25;;;-0.31;74.30
77869;BME280;67231;59.144;37.934;2023-02-01T07:05:25;98848.72;;;-0.30;74.26
77869;BME280;67231;59.144;37.934;2023-02-01T07:07:50;98852.75;;;-0.26;73.90
77869;BME280;67231;59.144;37.934;2023-02-01T07:10:16;98852.44;;;-0.21;73.96
77869;BME280;67231;59.144;37.934;2023-02-01T07:12:42;98861.00;;;-0.19;73.72
77869;BME280;67231;59.144;37.934;2023-02-01T07:15:08;98859.19;;;-0.19;74.17
77869;BME280;67231;59.144;37.934;2023-02-01T07:17:34;98860.75;;;-0.16;73.90
77869;BME280;67231;59.144;37.934;2023-02-01T07:19:59;98856.53;;;-0.06;73.91
77869;BME280;67231;59.144;37.934;2023-02-01T07:22:27;98863.19;;;-0.02;73.75
77869;BME280;67231;59.144;37.934;2023-02-01T07:24:52;98859.50;;;0.01;73.68
77869;BME280;67231;59.144;37.934;2023-02-01T07:27:18;98869.13;;;0.01;73.65
77869;BME280;67231;59.144;37.934;2023-02-01T07:29:45;98870.03;;;-0.01;73.63
77869;BME280;67231;59.144;37.934;2023-02-01T07:32:10;98871.72;;;0.01;73.74
77869;BME280;67231;59.144;37.934;2023-02-01T07:34:36;98882.16;;;0.01;73.13
77869;BME280;67231;59.144;37.934;2023-02-01T07:37:01;98882.16;;;0.01;73.45
77869;BME280;67231;59.144;37.934;2023-02-01T07:39:28;98884.75;;;0.01;73.01
77869;BME280;67231;59.144;37.934;2023-02-01T07:41:54;98871.38;;;0.05;73.87
77869;BME280;67231;59.144;37.934;2023-02-01T07:44:19;98879.56;;;0.12;73.45
77869;BME280;67231;59.144;37.934;2023-02-01T07:46:49;98883.72;;;0.14;72.82
77869;BME280;67231;59.144;37.934;2023-02-01T07:49:15;98884.13;;;0.21;72.78
77869;BME280;67231;59.144;37.934;2023-02-01T07:51:40;98877.72;;;0.25;72.42
77869;BME280;67231;59.144;37.934;2023-02-01T07:54:06;98892.44;;;0.26;72.74
77869;BME280;67231;59.144;37.934;2023-02-01T07:56:31;98887.81;;;0.30;72.37
77869;BME280;67231;59.144;37.934;2023-02-01T07:58:57;98886.63;;;0.34;71.84
77869;BME280;67231;59.144;37.934;2023-02-01T08:01:26;98879.53;;;0.36;71.93
77869;BME280;67231;59.144;37.934;2023-02-01T08:04:02;98884.28;;;0.42;71.71
77869;BME280;67231;59.144;37.934;2023-02-01T08:06:29;98881.78;;;0.41;72.20
77869;BME280;67231;59.144;37.934;2023-02-01T08:08:56;98889.84;;;0.38;72.28
77869;BME280;67231;59.144;37.934;2023-02-01T08:11:23;98893.38;;;0.36;72.00
77869;BME280;67231;59.144;37.934;2023-02-01T08:13:49;98897.91;;;0.34;71.66
77869;BME280;67231;59.144;37.934;2023-02-01T08:16:17;98901.56;;;0.32;71.72
77869;BME280;67231;59.144;37.934;2023-02-01T08:18:44;98903.22;;;0.33;71.61
77869;BME280;67231;59.144;37.934;2023-02-01T08:21:13;98915.13;;;0.37;71.65
77869;BME280;67231;59.144;37.934;2023-02-01T08:23:40;98907.53;;;0.45;71.41
77869;BME280;67231;59.144;37.934;2023-02-01T08:26:17;98910.41;;;0.53;71.40
77869;BME280;67231;59.144;37.934;2023-02-01T08:28:46;98908.38;;;0.57;71.29
77869;BME280;67231;59.144;37.934;2023-02-01T08:31:15;98916.22;;;0.57;71.15
77869;BME280;67231;59.144;37.934;2023-02-01T08:33:42;98917.66;;;0.61;71.26
77869;BME280;67231;59.144;37.934;2023-02-01T08:36:10;98921.09;;;0.73;70.64
77869;BME280;67231;59.144;37.934;2023-02-01T08:38:37;98923.13;;;0.81;70.86
77869;BME280;67231;59.144;37.934;2023-02-01T08:41:12;98927.28;;;0.83;70.47
77869;BME280;67231;59.144;37.934;2023-02-01T08:43:39;98920.06;;;0.76;70.78
77869;BME280;67231;59.144;37.934;2023-02-01T08:46:05;98923.38;;;0.78;71.08
77869;BME280;67231;59.144;37.934;2023-02-01T08:48:32;98933.59;;;0.92;71.01
77869;BME280;67231;59.144;37.934;2023-02-01T08:51:01;98928.50;;;1.02;70.38
77869;BME280;67231;59.144;37.934;2023-02-01T08:53:27;98928.59;;;1.12;70.88
77869;BME280;67231;59.144;37.934;2023-02-01T08:55:53;98926.94;;;1.22;70.78
77869;BME280;67231;59.144;37.934;2023-02-01T08:58:18;98920.97;;;1.31;70.26
77869;BME280;67231;59.144;37.934;2023-02-01T09:00:45;98927.41;;;1.38;70.42
77869;BME280;67231;59.144;37.934;2023-02-01T09:03:11;98928.09;;;1.40;69.90
77869;BME280;67231;59.144;37.934;2023-02-01T09:05:38;98919.78;;;1.47;69.71
77869;BME280;67231;59.144;37.934;2023-02-01T09:08:04;98927.50;;;1.48;69.96
77869;BME280;67231;59.144;37.934;2023-02-01T09:10:30;98935.22;;;1.50;70.08
77869;BME280;67231;59.144;37.934;2023-02-01T09:12:57;98928.31;;;1.60;69.67
77869;BME280;67231;59.144;37.934;2023-02-01T09:15:22;98935.13;;;1.51;70.00
77869;BME280;67231;59.144;37.934;2023-02-01T09:17:48;98933.22;;;1.42;70.00
77869;BME280;67231;59.144;37.934;2023-02-01T09:20:14;98934.50;;;1.36;69.58
77869;BME280;67231;59.144;37.934;2023-02-01T09:22:40;98933.13;;;1.32;70.40
77869;BME280;67231;59.144;37.934;2023-02-01T09:25:07;98940.72;;;1.24;69.78
77869;BME280;67231;59.144;37.934;2023-02-01T09:27:34;98939.06;;;1.23;70.40
77869;BME280;67231;59.144;37.934;2023-02-01T09:30:00;98944.28;;;1.23;70.07
77869;BME280;67231;59.144;37.934;2023-02-01T09:32:26;98942.38;;;1.25;70.21
77869;BME280;67231;59.144;37.934;2023-02-01T09:34:52;98960.88;;;1.33;70.09
77869;BME280;67231;59.144;37.934;2023-02-01T09:37:19;98953.44;;;1.40;70.50
77869;BME280;67231;59.144;37.934;2023-02-01T09:39:45;98958.97;;;1.58;70.55
77869;BME280;67231;59.144;37.934;2023-02-01T09:47:43;98958.84;;;1.71;70.60
77869;BME280;67231;59.144;37.934;2023-02-01T09:50:15;98953.84;;;1.68;70.51
77869;BME280;67231;59.144;37.934;2023-02-01T09:53:05;98961.34;;;1.72;70.42
77869;BME280;67231;59.144;37.934;2023-02-01T09:55:38;98960.13;;;1.76;70.15
77869;BME280;67231;59.144;37.934;2023-02-01T09:58:38;98961.66;;;1.79;70.19
77869;BME280;67231;59.144;37.934;2023-02-01T10:01:22;98968.94;;;1.75;70.40
77869;BME280;67231;59.144;37.934;2023-02-01T10:03:50;98968.84;;;1.66;70.24
77869;BME280;67231;59.144;37.934;2023-02-01T10:06:36;98963.50;;;1.56;69.92
77869;BME280;67231;59.144;37.934;2023-02-01T10:15:20;98966.84;;;1.47;70.51
77869;BME280;67231;59.144;37.934;2023-02-01T10:21:01;98978.81;;;1.38;69.75
77869;BME280;67231;59.144;37.934;2023-02-01T10:26:22;98978.72;;;1.39;70.43
77869;BME280;67231;59.144;37.934;2023-02-01T10:28:54;98976.72;;;1.43;70.04
77869;BME280;67231;59.144;37.934;2023-02-01T10:31:26;98966.38;;;1.53;69.64
77869;BME280;67231;59.144;37.934;2023-02-01T10:33:59;98975.38;;;1.60;69.76
77869;BME280;67231;59.144;37.934;2023-02-01T10:36:40;98985.59;;;1.63;69.03
77869;BME280;67231;59.144;37.934;2023-02-01T10:39:08;98973.47;;;1.62;69.31
77869;BME280;67231;59.144;37.934;2023-02-01T10:41:38;98973.00;;;1.57;69.25
77869;BME280;67231;59.144;37.934;2023-02-01T10:44:14;98976.81;;;1.53;68.89
77869;BME280;67231;59.144;37.934;2023-02-01T10:46:40;98978.72;;;1.39;69.82
77869;BME280;67231;59.144;37.934;2023-02-01T10:49:13;98987.03;;;1.33;69.24
77869;BME280;67231;59.144;37.934;2023-02-01T10:51:47;98974.94;;;1.32;69.78
77869;BME280;67231;59.144;37.934;2023-02-01T10:56:46;98969.69;;;1.43;69.09
77869;BME280;67231;59.144;37.934;2023-02-01T10:59:20;98980.16;;;1.32;69.51
77869;BME280;67231;59.144;37.934;2023-02-01T11:01:47;98976.44;;;1.35;69.94
77869;BME280;67231;59.144;37.934;2023-02-01T11:04:19;98970.03;;;1.39;69.23
77869;BME280;67231;59.144;37.934;2023-02-01T11:07:05;98990.38;;;1.35;68.82
77869;BME280;67231;59.144;37.934;2023-02-01T11:09:38;98986.56;;;1.28;68.90
77869;BME280;67231;59.144;37.934;2023-02-01T11:12:05;98975.41;;;1.26;69.18
77869;BME280;67231;59.144;37.934;2023-02-01T11:14:40;98984.16;;;1.25;69.14
77869;BME280;67231;59.144;37.934;2023-02-01T11:19:54;98977.88;;;1.16;69.62
77869;BME280;67231;59.144;37.934;2023-02-01T11:22:21;98984.91;;;1.16;69.21
77869;BME280;67231;59.144;37.934;2023-02-01T11:24:47;98980.50;;;1.16;69.46
77869;BME280;67231;59.144;37.934;2023-02-01T11:27:20;98985.63;;;1.18;69.24
77869;BME280;67231;59.144;37.934;2023-02-01T11:29:50;98988.69;;;1.12;69.66
77869;BME280;67231;59.144;37.934;2023-02-01T11:32:18;98985.72;;;1.05;69.83
77869;BME280;67231;59.144;37.934;2023-02-01T11:34:49;98985.84;;;1.03;69.18
77869;BME280;67231;59.144;37.934;2023-02-01T11:37:23;98989.50;;;1.01;69.88
77869;BME280;67231;59.144;37.934;2023-02-01T11:39:58;98985.25;;;1.00;69.28
77869;BME280;67231;59.144;37.934;2023-02-01T11:42:26;98987.34;;;0.95;69.35
77869;BME280;67231;59.144;37.934;2023-02-01T11:45:31;98991.75;;;0.94;70.29
77869;BME280;67231;59.144;37.934;2023-02-01T11:47:59;99008.75;;;1.00;69.59
77869;BME280;67231;59.144;37.934;2023-02-01T11:50:41;99008.97;;;0.97;70.18
77869;BME280;67231;59.144;37.934;2023-02-01T12:32:43;99038.41;;;0.52;70.85
77869;BME280;67231;59.144;37.934;2023-02-01T12:35:49;99042.16;;;0.48;71.01
77869;BME280;67231;59.144;37.934;2023-02-01T12:43:47;99038.84;;;0.46;71.45
77869;BME280;67231;59.144;37.934;2023-02-01T12:46:19;99042.16;;;0.48;71.00
77869;BME280;67231;59.144;37.934;2023-02-01T12:51:37;99049.41;;;0.44;71.28
77869;BME280;67231;59.144;37.934;2023-02-01T12:54:26;99051.91;;;0.46;71.11
77869;BME280;67231;59.144;37.934;2023-02-01T12:57:00;99046.19;;;0.41;71.34
77869;BME280;67231;59.144;37.934;2023-02-01T12:59:38;99057.34;;;0.43;71.51
77869;BME280;67231;59.144;37.934;2023-02-01T13:02:24;99056.63;;;0.41;70.95
77869;BME280;67231;59.144;37.934;2023-02-01T13:07:57;99062.06;;;0.38;71.37
77869;BME280;67231;59.144;37.934;2023-02-01T13:10:47;99065.59;;;0.36;70.75
77869;BME280;67231;59.144;37.934;2023-02-01T13:13:20;99056.34;;;0.32;70.96
77869;BME280;67231;59.144;37.934;2023-02-01T13:16:06;99058.09;;;0.32;71.09
77869;BME280;67231;59.144;37.934;2023-02-01T13:18:38;99056.69;;;0.28;70.78
77869;BME280;67231;59.144;37.934;2023-02-01T13:21:32;99067.09;;;0.28;70.61
77869;BME280;67231;59.144;37.934;2023-02-01T13:23:59;99079.56;;;0.24;71.31
77869;BME280;67231;59.144;37.934;2023-02-01T13:26:25;99072.66;;;0.23;71.02
77869;BME280;67231;59.144;37.934;2023-02-01T13:28:58;99084.03;;;0.22;70.83
77869;BME280;67231;59.144;37.934;2023-02-01T13:35:01;99083.53;;;0.17;71.00
77869;BME280;67231;59.144;37.934;2023-02-01T13:40:41;99078.63;;;0.12;71.09
77869;BME280;67231;59.144;37.934;2023-02-01T13:43:14;99089.38;;;0.08;71.79
77869;BME280;67231;59.144;37.934;2023-02-01T13:45:56;99088.56;;;0.07;71.54
77869;BME280;67231;59.144;37.934;2023-02-01T13:48:37;99087.00;;;0.05;71.45
77869;BME280;67231;59.144;37.934;2023-02-01T13:51:05;99088.66;;;0.06;71.53
77869;BME280;67231;59.144;37.934;2023-02-01T13:53:34;99080.13;;;0.04;72.18
77869;BME280;67231;59.144;37.934;2023-02-01T13:58:36;99091.38;;;0.04;71.76
77869;BME280;67231;59.144;37.934;2023-02-01T14:03:59;99100.03;;;0.05;72.18
77869;BME280;67231;59.144;37.934;2023-02-01T14:19:26;99112.47;;;0.01;72.60
77869;BME280;67231;59.144;37.934;2023-02-01T14:21:57;99122.06;;;0.01;72.28
77869;BME280;67231;59.144;37.934;2023-02-01T14:24:29;99123.97;;;-0.02;72.37
77869;BME280;67231;59.144;37.934;2023-02-01T14:27:01;99128.44;;;-0.04;72.34
77869;BME280;67231;59.144;37.934;2023-02-01T14:29:37;99127.00;;;-0.08;72.69
77869;BME280;67231;59.144;37.934;2023-02-01T14:32:15;99129.59;;;-0.08;72.68
77869;BME280;67231;59.144;37.934;2023-02-01T14:42:37;99130.94;;;-0.15;72.61
77869;BME280;67231;59.144;37.934;2023-02-01T14:50:34;99144.94;;;-0.16;72.81
77869;BME280;67231;59.144;37.934;2023-02-01T15:01:02;99134.63;;;-0.17;73.00
77869;BME280;67231;59.144;37.934;2023-02-01T15:06:33;99150.88;;;-0.14;72.43
77869;BME280;67231;59.144;37.934;2023-02-01T15:09:07;99149.19;;;-0.15;72.88
77869;BME280;67231;59.144;37.934;2023-02-01T15:12:14;99153.59;;;-0.15;73.16
77869;BME280;67231;59.144;37.934;2023-02-01T15:14:42;99153.69;;;-0.17;72.52
77869;BME280;67231;59.144;37.934;2023-02-01T15:17:21;99161.50;;;-0.17;72.93
77869;BME280;67231;59.144;37.934;2023-02-01T15:19:59;99147.00;;;-0.21;72.72
77869;BME280;67231;59.144;37.934;2023-02-01T15:22:27;99161.72;;;-0.20;72.74
77869;BME280;67231;59.144;37.934;2023-02-01T15:24:53;99151.28;;;-0.20;72.60
77869;BME280;67231;59.144;37.934;2023-02-01T15:27:20;99149.50;;;-0.20;72.67
77869;BME280;67231;59.144;37.934;2023-02-01T15:29:46;99155.47;;;-0.17;72.74
77869;BME280;67231;59.144;37.934;2023-02-01T15:32:35;99159.13;;;-0.20;72.57
77869;BME280;67231;59.144;37.934;2023-02-01T15:35:03;99159.00;;;-0.19;71.94
77869;BME280;67231;59.144;37.934;2023-02-01T15:37:30;99160.91;;;-0.21;72.30
77869;BME280;67231;59.144;37.934;2023-02-01T15:42:52;99168.63;;;-0.19;72.14
77869;BME280;67231;59.144;37.934;2023-02-01T15:45:18;99160.91;;;-0.21;71.90
77869;BME280;67231;59.144;37.934;2023-02-01T15:47:47;99156.72;;;-0.23;72.36
77869;BME280;67231;59.144;37.934;2023-02-01T15:50:19;99169.94;;;-0.26;72.49